Time;durP1;ratioP1;P1;durP2;ratioP2;P2;SDS_P1;SDS_P2;PMS_P1;PMS_P2;Temp;Humidity;BMP_temperature;BMP_pressure;BME280_temperature;BME280_humidity;BME280_pressure;Samples;Min_cycle;Max_cycle;Signal;HPM_P1;HPM_P2
2021/08/03 00:02:15;;;;;;;1.15;0.75;;;;;;;;;;5094295;28;20103;-57
2021/08/03 00:04:42;;;;;;;2.22;1.17;;;;;;;;;;5094078;28;20032;-55
2021/08/03 00:07:17;;;;;;;2.53;1.33;;;;;;;;;;5094420;28;20023;-55
2021/08/03 00:09:44;;;;;;;2.03;1.23;;;;;;;;;;5094364;28;20446;-57
2021/08/03 00:12:12;;;;;;;3.00;1.45;;;;;;;;;;5093403;28;20066;-57
2021/08/03 00:14:42;;;;;;;2.92;1.48;;;;;;;;;;5094055;28;20378;-56
2021/08/03 00:17:11;;;;;;;2.78;1.88;;;;;;;;;;5093717;28;20024;-57
2021/08/03 00:19:37;;;;;;;1.83;1.33;;;;;;;;;;5093694;28;20111;-57
2021/08/03 00:22:06;;;;;;;4.00;1.77;;;;;;;;;;5076340;28;20028;-57
2021/08/03 00:24:33;;;;;;;2.53;1.13;;;;;;;;;;5092981;28;20070;-56
2021/08/03 00:26:59;;;;;;;4.72;1.45;;;;;;;;;;5094450;28;20319;-57
2021/08/03 00:29:25;;;;;;;2.00;1.20;;;;;;;;;;5092660;28;20382;-57
2021/08/03 00:31:51;;;;;;;3.22;1.40;;;;;;;;;;5093531;28;20021;-57
2021/08/03 00:34:18;;;;;;;2.05;1.13;;;;;;;;;;5092843;28;20039;-56
2021/08/03 00:36:44;;;;;;;2.05;1.15;;;;;;;;;;5093570;28;20028;-56
2021/08/03 00:39:10;;;;;;;2.45;1.10;;;;;;;;;;5092279;28;20382;-57
2021/08/03 00:41:42;;;;;;;3.17;1.63;;;;;;;;;;5093923;28;20020;-57
2021/08/03 00:44:08;;;;;;;2.35;1.23;;;;;;;;;;5093697;28;20028;-57
2021/08/03 00:46:35;;;;;;;2.30;1.38;;;;;;;;;;5093716;28;20427;-56
2021/08/03 00:49:01;;;;;;;2.13;1.48;;;;;;;;;;5093442;28;20077;-55
2021/08/03 00:51:30;;;;;;;2.83;1.60;;;;;;;;;;5093754;28;20059;-57
2021/08/03 00:53:56;;;;;;;2.65;1.38;;;;;;;;;;5095362;28;20035;-57
2021/08/03 00:56:22;;;;;;;2.15;1.45;;;;;;;;;;5097211;28;20073;-56
2021/08/03 00:58:48;;;;;;;2.75;1.42;;;;;;;;;;5097275;28;20374;-57
2021/08/03 01:01:14;;;;;;;2.83;1.55;;;;;;;;;;5095958;28;20031;-57
2021/08/03 01:03:40;;;;;;;2.17;1.42;;;;;;;;;;5097448;28;20031;-57
2021/08/03 01:06:26;;;;;;;2.55;1.52;;;;;;;;;;5097379;28;20036;-57
2021/08/03 01:09:02;;;;;;;5.85;1.50;;;;;;;;;;5096310;28;20020;-57
2021/08/03 01:11:43;;;;;;;2.28;1.40;;;;;;;;;;5096639;28;20051;-57
2021/08/03 01:14:09;;;;;;;2.67;1.50;;;;;;;;;;5095412;28;20111;-57
2021/08/03 01:16:39;;;;;;;2.65;1.70;;;;;;;;;;5096995;28;20424;-57
2021/08/03 01:19:25;;;;;;;4.07;1.40;;;;;;;;;;5097179;28;20028;-57
2021/08/03 01:21:52;;;;;;;2.17;1.40;;;;;;;;;;5095238;28;20732;-57
2021/08/03 01:24:18;;;;;;;3.42;1.67;;;;;;;;;;5095396;28;20441;-56
2021/08/03 01:26:53;;;;;;;2.22;1.35;;;;;;;;;;5096407;28;20063;-57
2021/08/03 01:29:21;;;;;;;2.78;1.60;;;;;;;;;;5096672;28;20471;-57
2021/08/03 01:31:49;;;;;;;5.93;1.95;;;;;;;;;;5095979;28;20023;-56
2021/08/03 01:34:17;;;;;;;3.20;1.85;;;;;;;;;;5096535;28;20028;-56
2021/08/03 01:36:48;;;;;;;2.30;1.50;;;;;;;;;;5096808;28;20053;-56
2021/08/03 01:39:19;;;;;;;2.28;1.33;;;;;;;;;;5096758;28;20024;-57
2021/08/03 01:41:49;;;;;;;3.42;1.80;;;;;;;;;;5097255;28;20020;-56
2021/08/03 01:44:15;;;;;;;1.77;1.20;;;;;;;;;;5095885;28;20473;-56
2021/08/03 01:46:42;;;;;;;2.20;1.30;;;;;;;;;;5096637;28;20024;-57
2021/08/03 01:49:10;;;;;;;2.25;1.20;;;;;;;;;;5096287;28;20032;-55
2021/08/03 01:51:37;;;;;;;2.85;1.60;;;;;;;;;;5095720;28;20035;-57
2021/08/03 01:54:03;;;;;;;2.78;1.92;;;;;;;;;;5095901;28;20055;-57
2021/08/03 01:56:30;;;;;;;2.17;1.20;;;;;;;;;;5096157;28;20036;-57
2021/08/03 01:58:57;;;;;;;2.90;1.73;;;;;;;;;;5094570;28;20119;-56
2021/08/03 02:01:23;;;;;;;2.38;1.15;;;;;;;;;;5094527;28;20034;-56
2021/08/03 02:03:50;;;;;;;3.78;1.58;;;;;;;;;;5096038;28;20108;-57
2021/08/03 02:06:19;;;;;;;2.17;1.42;;;;;;;;;;5095877;28;20371;-56
2021/08/03 02:08:46;;;;;;;3.25;1.40;;;;;;;;;;5096478;28;20031;-56
2021/08/03 02:11:13;;;;;;;1.95;1.33;;;;;;;;;;5095508;28;20044;-56
2021/08/03 02:13:39;;;;;;;2.92;1.40;;;;;;;;;;5094545;28;20030;-57
2021/08/03 02:16:05;;;;;;;3.08;1.83;;;;;;;;;;5094419;28;20425;-57
2021/08/03 02:18:31;;;;;;;2.08;1.45;;;;;;;;;;5095773;28;20059;-57
2021/08/03 02:20:57;;;;;;;2.78;1.48;;;;;;;;;;5094799;28;20024;-57
2021/08/03 02:23:23;;;;;;;2.58;1.70;;;;;;;;;;5094415;28;20024;-56
2021/08/03 02:25:49;;;;;;;4.93;2.13;;;;;;;;;;5095521;28;20043;-55
2021/08/03 02:28:15;;;;;;;2.60;1.35;;;;;;;;;;5094244;28;20016;-57
2021/08/03 02:30:44;;;;;;;4.05;1.92;;;;;;;;;;5095438;28;20028;-57
2021/08/03 02:33:22;;;;;;;2.10;1.10;;;;;;;;;;5095748;28;20077;-55
2021/08/03 02:35:53;;;;;;;6.25;1.70;;;;;;;;;;5094991;28;20060;-57
2021/08/03 02:38:21;;;;;;;2.58;1.40;;;;;;;;;;5094678;28;20028;-57
2021/08/03 02:40:47;;;;;;;2.40;1.48;;;;;;;;;;5094583;28;20064;-57
2021/08/03 02:43:14;;;;;;;5.10;1.65;;;;;;;;;;5095447;28;20037;-57
2021/08/03 02:45:44;;;;;;;2.00;1.60;;;;;;;;;;5095082;28;20492;-56
2021/08/03 02:48:14;;;;;;;2.58;1.42;;;;;;;;;;5094986;28;20126;-57
2021/08/03 02:50:44;;;;;;;3.67;1.90;;;;;;;;;;5094163;28;20111;-57
2021/08/03 02:53:16;;;;;;;3.38;1.90;;;;;;;;;;5094378;28;20462;-57
2021/08/03 02:55:51;;;;;;;4.35;1.77;;;;;;;;;;5094951;28;20377;-57
2021/08/03 02:58:20;;;;;;;1.95;1.20;;;;;;;;;;5094168;28;20032;-56
2021/08/03 03:00:47;;;;;;;2.88;1.58;;;;;;;;;;5093603;28;20439;-55
2021/08/03 03:03:15;;;;;;;2.40;1.30;;;;;;;;;;5095700;28;20028;-56
2021/08/03 03:05:43;;;;;;;1.85;1.13;;;;;;;;;;5094054;28;20028;-57
2021/08/03 03:08:10;;;;;;;1.63;1.02;;;;;;;;;;5094498;28;20047;-56
2021/08/03 03:10:41;;;;;;;4.88;1.42;;;;;;;;;;5094681;28;20028;-54
2021/08/03 03:13:11;;;;;;;2.67;1.80;;;;;;;;;;5094833;28;20063;-56
2021/08/03 03:15:37;;;;;;;2.38;1.75;;;;;;;;;;5093796;28;20159;-57
2021/08/03 03:18:03;;;;;;;1.95;1.20;;;;;;;;;;5076558;28;20024;-56
2021/08/03 03:20:30;;;;;;;3.55;1.60;;;;;;;;;;5094788;28;20029;-55
2021/08/03 03:22:56;;;;;;;4.10;1.92;;;;;;;;;;5094506;28;20059;-56
2021/08/03 03:25:23;;;;;;;3.22;1.77;;;;;;;;;;5094688;28;20096;-55
2021/08/03 03:27:53;;;;;;;2.92;1.73;;;;;;;;;;5093341;28;20032;-57
2021/08/03 03:30:19;;;;;;;3.00;1.65;;;;;;;;;;5092708;28;20466;-57
2021/08/03 03:32:45;;;;;;;3.95;1.40;;;;;;;;;;5094877;28;20031;-53
2021/08/03 03:35:12;;;;;;;3.03;1.92;;;;;;;;;;5094860;28;20404;-57
2021/08/03 03:37:38;;;;;;;2.55;1.70;;;;;;;;;;5094065;28;20470;-57
2021/08/03 03:40:05;;;;;;;4.47;1.98;;;;;;;;;;5093996;28;20031;-56
2021/08/03 03:42:32;;;;;;;2.78;1.52;;;;;;;;;;5094660;28;20137;-56
2021/08/03 03:44:59;;;;;;;3.28;1.92;;;;;;;;;;5094176;28;20038;-57
2021/08/03 03:47:30;;;;;;;2.80;1.70;;;;;;;;;;5092585;28;20046;-57
2021/08/03 03:50:02;;;;;;;2.47;1.65;;;;;;;;;;5093989;28;20355;-57
2021/08/03 03:52:30;;;;;;;2.53;1.58;;;;;;;;;;5094463;28;20028;-56
2021/08/03 03:54:57;;;;;;;4.13;1.75;;;;;;;;;;5094151;28;20108;-56
2021/08/03 03:57:23;;;;;;;2.38;1.45;;;;;;;;;;5094344;28;20062;-57
2021/08/03 03:59:50;;;;;;;6.13;1.77;;;;;;;;;;5076021;28;20114;-56
2021/08/03 04:02:19;;;;;;;3.15;1.88;;;;;;;;;;5093358;28;20036;-57
2021/08/03 04:04:46;;;;;;;4.05;1.98;;;;;;;;;;5092667;28;20036;-57
2021/08/03 04:07:12;;;;;;;2.28;1.52;;;;;;;;;;5076500;28;20032;-56
2021/08/03 04:09:41;;;;;;;7.10;1.75;;;;;;;;;;5092680;28;20024;-57
2021/08/03 04:12:07;;;;;;;2.10;1.35;;;;;;;;;;5094269;28;20342;-56
2021/08/03 04:14:34;;;;;;;2.65;1.55;;;;;;;;;;5091994;28;20036;-55
2021/08/03 04:17:00;;;;;;;2.90;1.92;;;;;;;;;;5092163;28;20028;-57
2021/08/03 04:19:26;;;;;;;2.10;1.20;;;;;;;;;;5092580;28;20078;-56
2021/08/03 04:21:55;;;;;;;3.08;1.90;;;;;;;;;;5094116;28;20028;-56
2021/08/03 04:24:21;;;;;;;2.60;1.63;;;;;;;;;;5094143;28;20044;-57
2021/08/03 04:26:50;;;;;;;3.08;2.17;;;;;;;;;;5093963;28;20103;-57
2021/08/03 04:29:16;;;;;;;3.85;1.67;;;;;;;;;;5097896;28;20024;-55
2021/08/03 04:31:43;;;;;;;3.17;1.38;;;;;;;;;;5098422;28;20031;-55
2021/08/03 04:34:09;;;;;;;2.80;1.80;;;;;;;;;;5079506;28;20119;-56
2021/08/03 04:36:35;;;;;;;2.35;1.45;;;;;;;;;;5098039;28;20458;-57
2021/08/03 04:39:01;;;;;;;6.22;3.25;;;;;;;;;;5097582;28;20055;-56
2021/08/03 04:41:27;;;;;;;2.72;1.73;;;;;;;;;;5080225;28;20358;-56
2021/08/03 04:43:53;;;;;;;5.97;2.22;;;;;;;;;;5097864;28;20458;-56
2021/08/03 04:46:22;;;;;;;2.47;1.58;;;;;;;;;;5097472;28;20065;-57
2021/08/03 04:48:47;;;;;;;2.25;1.60;;;;;;;;;;5097098;28;20028;-57
2021/08/03 04:51:13;;;;;;;5.25;2.33;;;;;;;;;;5097490;28;20023;-56
2021/08/03 04:53:39;;;;;;;2.75;1.80;;;;;;;;;;5097411;28;20024;-57
2021/08/03 04:56:05;;;;;;;2.80;1.83;;;;;;;;;;5097153;28;20153;-55
2021/08/03 04:58:31;;;;;;;2.20;1.42;;;;;;;;;;5096992;28;20117;-55
2021/08/03 05:00:57;;;;;;;2.83;1.45;;;;;;;;;;5096106;28;20032;-57
2021/08/03 05:03:27;;;;;;;3.75;1.95;;;;;;;;;;5079210;28;20036;-55
2021/08/03 05:05:53;;;;;;;3.30;2.10;;;;;;;;;;5095885;28;20089;-55
2021/08/03 05:08:19;;;;;;;3.78;2.80;;;;;;;;;;5097083;28;20027;-57
2021/08/03 05:10:44;;;;;;;2.35;1.70;;;;;;;;;;5078705;28;20031;-57
2021/08/03 05:13:11;;;;;;;3.45;1.75;;;;;;;;;;5095815;28;20080;-57
2021/08/03 05:15:40;;;;;;;4.50;2.17;;;;;;;;;;5097264;28;20055;-57
2021/08/03 05:18:06;;;;;;;3.42;2.33;;;;;;;;;;5097514;28;20101;-57
2021/08/03 05:20:32;;;;;;;3.40;1.90;;;;;;;;;;5096586;28;20082;-57
2021/08/03 05:22:59;;;;;;;7.20;2.85;;;;;;;;;;5097712;28;20075;-56
2021/08/03 05:25:25;;;;;;;14.95;2.42;;;;;;;;;;5095499;28;20454;-57
2021/08/03 05:27:51;;;;;;;2.67;1.92;;;;;;;;;;5096744;28;20408;-56
2021/08/03 05:30:17;;;;;;;3.58;2.70;;;;;;;;;;5096769;28;20028;-57
2021/08/03 05:32:43;;;;;;;3.53;2.35;;;;;;;;;;5095293;28;20032;-56
2021/08/03 05:35:09;;;;;;;4.72;2.45;;;;;;;;;;5096548;28;20028;-56
2021/08/03 05:37:36;;;;;;;3.50;2.60;;;;;;;;;;5078433;28;20071;-56
2021/08/03 05:40:08;;;;;;;3.38;2.53;;;;;;;;;;5095397;28;20051;-56
2021/08/03 05:42:34;;;;;;;5.38;2.22;;;;;;;;;;5097336;28;20028;-57
2021/08/03 05:45:03;;;;;;;6.30;2.58;;;;;;;;;;5096323;28;20123;-55
2021/08/03 05:47:30;;;;;;;4.05;2.38;;;;;;;;;;5094778;28;20169;-57
2021/08/03 05:49:58;;;;;;;7.57;2.70;;;;;;;;;;5096338;28;20035;-57
2021/08/03 05:52:24;;;;;;;5.70;2.45;;;;;;;;;;5095896;28;20031;-56
2021/08/03 05:54:50;;;;;;;3.80;2.30;;;;;;;;;;5097063;28;20028;-57
2021/08/03 05:57:16;;;;;;;4.20;2.05;;;;;;;;;;5096870;28;20028;-57
2021/08/03 05:59:42;;;;;;;3.47;2.40;;;;;;;;;;5095177;28;20025;-56
2021/08/03 06:02:08;;;;;;;3.08;2.20;;;;;;;;;;5095202;28;20038;-57
2021/08/03 06:04:34;;;;;;;4.57;2.30;;;;;;;;;;5078013;28;20408;-58
2021/08/03 06:07:02;;;;;;;2.50;1.70;;;;;;;;;;5095937;28;20036;-58
2021/08/03 06:09:29;;;;;;;5.03;2.42;;;;;;;;;;5095911;28;20473;-58
2021/08/03 06:11:56;;;;;;;5.40;2.58;;;;;;;;;;5095244;28;20052;-57
2021/08/03 06:14:35;;;;;;;2.67;1.67;;;;;;;;;;5095793;28;20428;-58
2021/08/03 06:17:03;;;;;;;3.05;1.98;;;;;;;;;;5095964;28;20016;-58
2021/08/03 06:19:30;;;;;;;4.38;2.05;;;;;;;;;;5095784;28;20032;-58
2021/08/03 06:21:57;;;;;;;2.92;2.25;;;;;;;;;;5094974;28;20108;-58
2021/08/03 06:24:26;;;;;;;3.08;2.15;;;;;;;;;;5095658;28;20434;-58
2021/08/03 06:26:52;;;;;;;5.90;1.80;;;;;;;;;;5095552;28;20035;-58
2021/08/03 06:29:19;;;;;;;3.72;2.40;;;;;;;;;;5096401;28;20052;-58
2021/08/03 06:31:45;;;;;;;7.47;2.90;;;;;;;;;;5078070;28;20021;-58
2021/08/03 06:34:12;;;;;;;6.18;2.55;;;;;;;;;;5095768;28;20404;-58
2021/08/03 06:36:38;;;;;;;5.80;2.85;;;;;;;;;;5095238;28;20100;-58
2021/08/03 06:39:04;;;;;;;2.83;2.05;;;;;;;;;;5095525;28;20384;-56
2021/08/03 06:41:41;;;;;;;3.50;2.10;;;;;;;;;;5095225;28;20024;-58
2021/08/03 06:44:18;;;;;;;4.22;2.40;;;;;;;;;;5078205;28;20331;-58
2021/08/03 06:46:45;;;;;;;2.83;1.90;;;;;;;;;;5095761;28;20085;-58
2021/08/03 06:49:14;;;;;;;3.75;1.70;;;;;;;;;;5095048;28;20024;-58
2021/08/03 06:51:41;;;;;;;3.90;1.80;;;;;;;;;;5094739;28;20465;-58
2021/08/03 06:54:08;;;;;;;4.50;1.77;;;;;;;;;;5093751;28;20039;-58
2021/08/03 06:56:47;;;;;;;3.03;1.92;;;;;;;;;;5094005;28;20016;-58
2021/08/03 06:59:17;;;;;;;3.10;1.65;;;;;;;;;;5095017;28;20416;-58
2021/08/03 07:02:05;;;;;;;3.35;1.90;;;;;;;;;;5095171;28;20051;-58
2021/08/03 07:04:37;;;;;;;5.38;1.80;;;;;;;;;;5093953;28;20041;-58
2021/08/03 07:07:03;;;;;;;3.38;2.17;;;;;;;;;;5094803;28;20073;-58
2021/08/03 07:09:30;;;;;;;2.00;1.40;;;;;;;;;;5095109;28;20082;-58
2021/08/03 07:12:05;;;;;;;1.92;1.35;;;;;;;;;;5071405;28;20387;-58
2021/08/03 07:14:34;;;;;;;1.98;1.33;;;;;;;;;;5070608;28;20043;-58
2021/08/03 07:17:02;;;;;;;2.95;1.60;;;;;;;;;;5069550;28;20112;-58
2021/08/03 07:19:28;;;;;;;5.90;1.60;;;;;;;;;;5070940;28;20045;-58
2021/08/03 07:21:54;;;;;;;2.72;1.60;;;;;;;;;;5070042;28;20029;-58
2021/08/03 07:24:20;;;;;;;3.00;1.65;;;;;;;;;;5071248;28;20021;-58
2021/08/03 07:26:49;;;;;;;2.72;1.35;;;;;;;;;;5070794;28;20055;-58
2021/08/03 07:29:15;;;;;;;2.80;1.40;;;;;;;;;;5070709;28;20033;-58
2021/08/03 07:31:44;;;;;;;3.72;1.27;;;;;;;;;;5070035;28;20033;-58
2021/08/03 07:34:10;;;;;;;2.00;1.02;;;;;;;;;;5070493;28;20074;-58
2021/08/03 07:36:37;;;;;;;2.70;1.10;;;;;;;;;;5070408;28;20025;-58
2021/08/03 07:39:04;;;;;;;2.72;1.42;;;;;;;;;;5070570;28;20028;-58
2021/08/03 07:41:31;;;;;;;1.60;0.75;;;;;;;;;;5070578;28;20130;-58
2021/08/03 07:43:57;;;;;;;2.65;1.20;;;;;;;;;;5070561;28;20415;-58
2021/08/03 07:46:23;;;;;;;1.98;0.93;;;;;;;;;;5070110;28;20028;-58
2021/08/03 07:48:52;;;;;;;5.85;0.90;;;;;;;;;;5069270;28;20032;-59
2021/08/03 07:51:19;;;;;;;3.53;1.15;;;;;;;;;;5070137;28;20028;-58
2021/08/03 07:53:48;;;;;;;1.85;1.08;;;;;;;;;;5070172;28;20056;-58
2021/08/03 07:56:15;;;;;;;4.32;0.93;;;;;;;;;;5070256;28;20131;-58
2021/08/03 07:58:44;;;;;;;2.00;1.08;;;;;;;;;;5068845;28;20370;-58
2021/08/03 08:01:10;;;;;;;2.63;1.60;;;;;;;;;;5070144;28;20029;-58
2021/08/03 08:03:37;;;;;;;5.45;1.58;;;;;;;;;;5069144;28;20032;-58
2021/08/03 08:06:04;;;;;;;2.05;1.15;;;;;;;;;;5069989;28;20074;-58
2021/08/03 08:08:30;;;;;;;3.13;1.55;;;;;;;;;;5070245;28;20031;-58
2021/08/03 08:10:59;;;;;;;2.30;0.98;;;;;;;;;;5069772;28;20053;-58
2021/08/03 08:13:28;;;;;;;6.50;1.42;;;;;;;;;;5070359;28;20200;-58
2021/08/03 08:15:54;;;;;;;2.03;1.10;;;;;;;;;;5069596;28;20021;-58
2021/08/03 08:18:20;;;;;;;2.70;0.90;;;;;;;;;;5069631;28;20067;-59
2021/08/03 08:20:46;;;;;;;2.15;1.42;;;;;;;;;;5068778;28;20033;-59
2021/08/03 08:23:13;;;;;;;1.83;0.90;;;;;;;;;;5058059;28;20074;-59
2021/08/03 08:25:39;;;;;;;2.22;0.98;;;;;;;;;;5056645;28;20348;-59
2021/08/03 08:28:06;;;;;;;2.67;1.13;;;;;;;;;;5055112;28;20029;-59
2021/08/03 08:30:32;;;;;;;3.72;0.90;;;;;;;;;;5056288;28;20025;-59
2021/08/03 08:33:01;;;;;;;2.85;1.00;;;;;;;;;;5055401;28;20474;-58
2021/08/03 08:35:28;;;;;;;1.40;0.80;;;;;;;;;;5055941;28;20396;-58
2021/08/03 08:37:54;;;;;;;2.58;1.15;;;;;;;;;;5055025;28;20056;-59
2021/08/03 08:40:20;;;;;;;2.63;1.13;;;;;;;;;;5055941;28;20420;-59
2021/08/03 08:42:46;;;;;;;1.85;1.10;;;;;;;;;;5055214;28;20021;-58
2021/08/03 08:45:13;;;;;;;3.15;1.38;;;;;;;;;;5056401;28;20497;-58
2021/08/03 08:47:43;;;;;;;2.33;1.30;;;;;;;;;;5055711;28;20021;-58
2021/08/03 08:50:09;;;;;;;2.15;1.20;;;;;;;;;;5054368;28;20056;-59
2021/08/03 08:52:36;;;;;;;2.75;1.50;;;;;;;;;;5056035;28;20044;-58
2021/08/03 08:55:02;;;;;;;3.50;1.42;;;;;;;;;;5055915;28;20029;-58
2021/08/03 08:57:28;;;;;;;1.90;1.17;;;;;;;;;;5056056;28;20026;-59
2021/08/03 08:59:56;;;;;;;3.58;1.35;;;;;;;;;;5055761;28;20021;-58
2021/08/03 09:02:39;;;;;;;1.55;0.80;;;;;;;;;;5056321;28;20020;-58
2021/08/03 09:05:05;;;;;;;2.15;1.20;;;;;;;;;;5055782;28;20027;-59
2021/08/03 09:07:31;;;;;;;2.30;0.85;;;;;;;;;;5055611;28;20013;-59
2021/08/03 09:09:57;;;;;;;2.08;1.00;;;;;;;;;;5054185;28;20053;-59
2021/08/03 09:12:33;;;;;;;1.92;1.10;;;;;;;;;;5055644;28;20031;-59
2021/08/03 09:14:59;;;;;;;1.83;0.93;;;;;;;;;;5054381;28;20071;-59
2021/08/03 09:17:27;;;;;;;2.80;1.42;;;;;;;;;;5055517;28;20047;-59
2021/08/03 09:19:53;;;;;;;6.10;1.13;;;;;;;;;;5054138;28;20111;-59
2021/08/03 09:22:22;;;;;;;1.98;1.17;;;;;;;;;;5055790;28;20148;-58
2021/08/03 09:24:50;;;;;;;1.50;0.80;;;;;;;;;;5054039;28;20025;-59
2021/08/03 09:27:34;;;;;;;2.72;1.05;;;;;;;;;;5054128;28;20070;-59
2021/08/03 09:30:01;;;;;;;2.78;0.85;;;;;;;;;;5055438;28;20064;-59
2021/08/03 09:32:31;;;;;;;3.05;1.30;;;;;;;;;;5055538;28;20367;-59
2021/08/03 09:35:07;;;;;;;2.03;1.10;;;;;;;;;;5054089;28;20112;-59
2021/08/03 09:37:33;;;;;;;1.98;1.15;;;;;;;;;;5054375;28;20025;-59
2021/08/03 09:39:59;;;;;;;2.38;0.93;;;;;;;;;;5053898;28;20082;-58
2021/08/03 09:42:27;;;;;;;3.38;1.00;;;;;;;;;;5054745;28;20028;-59
2021/08/03 09:44:56;;;;;;;3.92;1.60;;;;;;;;;;5054691;28;20028;-59
2021/08/03 09:47:23;;;;;;;1.67;0.80;;;;;;;;;;5054271;28;20455;-59
2021/08/03 09:49:51;;;;;;;1.58;0.80;;;;;;;;;;5037079;28;20104;-58
2021/08/03 09:52:21;;;;;;;3.05;1.33;;;;;;;;;;5054892;28;20036;-58
2021/08/03 09:54:48;;;;;;;1.77;0.88;;;;;;;;;;5054794;28;20100;-58
2021/08/03 09:57:24;;;;;;;1.60;0.90;;;;;;;;;;5054713;28;20029;-59
2021/08/03 09:59:51;;;;;;;1.95;1.13;;;;;;;;;;5054752;28;20104;-59
2021/08/03 10:02:18;;;;;;;1.55;1.00;;;;;;;;;;5054850;28;20028;-59
2021/08/03 10:04:44;;;;;;;1.85;0.85;;;;;;;;;;5053340;28;20028;-58
2021/08/03 10:07:11;;;;;;;1.88;1.05;;;;;;;;;;5036636;28;20090;-59
2021/08/03 10:09:38;;;;;;;1.60;1.00;;;;;;;;;;5054117;28;20032;-59
2021/08/03 10:12:04;;;;;;;1.38;0.80;;;;;;;;;;5054342;28;20467;-59
2021/08/03 10:14:30;;;;;;;3.75;1.30;;;;;;;;;;5036506;28;20368;-59
2021/08/03 10:16:56;;;;;;;1.73;1.02;;;;;;;;;;5054532;28;20017;-59
2021/08/03 10:19:25;;;;;;;2.83;0.90;;;;;;;;;;5054393;28;20021;-59
2021/08/03 10:22:01;;;;;;;2.83;1.23;;;;;;;;;;5053035;28;20025;-59
2021/08/03 10:24:29;;;;;;;2.95;1.35;;;;;;;;;;5054428;28;20110;-58
2021/08/03 10:27:10;;;;;;;1.55;0.90;;;;;;;;;;5052807;28;20033;-59
2021/08/03 10:29:39;;;;;;;;;;;;;;;;;;5055062;28;20383;-59
2021/08/03 10:32:05;;;;;;;2.38;1.35;;;;;;;;;;5054212;28;19967;-58
2021/08/03 10:34:43;;;;;;;1.58;0.88;;;;;;;;;;5053139;28;20033;-59
2021/08/03 10:37:13;;;;;;;1.60;0.93;;;;;;;;;;5054385;28;20043;-59
2021/08/03 10:39:49;;;;;;;2.90;1.10;;;;;;;;;;5054307;28;20036;-59
2021/08/03 10:42:15;;;;;;;2.58;0.90;;;;;;;;;;5053220;28;20055;-59
2021/08/03 10:44:43;;;;;;;2.10;1.10;;;;;;;;;;5053680;28;20025;-58
2021/08/03 10:47:28;;;;;;;2.55;1.10;;;;;;;;;;5053959;28;20025;-58
2021/08/03 10:49:55;;;;;;;2.05;1.00;;;;;;;;;;5053634;28;20406;-59
2021/08/03 10:52:40;;;;;;;1.73;0.93;;;;;;;;;;5054159;28;20475;-58
2021/08/03 10:55:06;;;;;;;2.42;1.42;;;;;;;;;;5053078;28;20363;-59
2021/08/03 10:57:32;;;;;;;1.88;1.00;;;;;;;;;;5052178;28;20043;-59
2021/08/03 10:59:59;;;;;;;3.95;1.40;;;;;;;;;;5053352;28;20494;-58
2021/08/03 11:02:25;;;;;;;1.92;1.00;;;;;;;;;;5053299;28;20036;-59
2021/08/03 11:04:51;;;;;;;2.03;1.10;;;;;;;;;;5053260;28;20025;-59
2021/08/03 11:07:39;;;;;;;1.75;1.00;;;;;;;;;;5054180;28;20021;-59
2021/08/03 11:10:10;;;;;;;2.95;1.27;;;;;;;;;;5053608;28;20374;-59
2021/08/03 11:12:38;;;;;;;1.67;1.17;;;;;;;;;;5053893;28;20520;-59
2021/08/03 11:15:22;;;;;;;2.80;1.80;;;;;;;;;;5053946;28;20083;-59
2021/08/03 11:17:53;;;;;;;3.63;1.73;;;;;;;;;;5052515;28;20052;-58
2021/08/03 11:20:34;;;;;;;2.95;1.67;;;;;;;;;;5053806;28;20033;-59
2021/08/03 11:23:01;;;;;;;2.30;1.40;;;;;;;;;;5053939;28;20048;-59
2021/08/03 11:25:28;;;;;;;2.72;1.52;;;;;;;;;;5053823;28;20079;-58
2021/08/03 11:27:54;;;;;;;2.63;1.80;;;;;;;;;;5053352;28;20108;-59
2021/08/03 11:30:20;;;;;;;4.00;1.52;;;;;;;;;;5053357;28;20043;-59
2021/08/03 11:32:50;;;;;;;2.10;1.35;;;;;;;;;;5053439;28;20029;-59
2021/08/03 11:35:27;;;;;;;2.72;1.55;;;;;;;;;;5053382;28;20029;-59
2021/08/03 11:37:53;;;;;;;2.70;1.52;;;;;;;;;;5053517;28;20028;-59
2021/08/03 11:40:21;;;;;;;3.03;1.70;;;;;;;;;;5053585;28;20057;-59
2021/08/03 11:42:50;;;;;;;1.83;1.20;;;;;;;;;;5053654;28;20406;-58
2021/08/03 11:45:21;;;;;;;2.42;1.70;;;;;;;;;;5052148;28;20508;-59
2021/08/03 11:47:54;;;;;;;3.10;1.70;;;;;;;;;;5053209;28;20057;-59
2021/08/03 11:50:29;;;;;;;5.32;3.33;;;;;;;;;;5053407;28;20033;-59
2021/08/03 11:52:55;;;;;;;3.03;2.28;;;;;;;;;;5052497;28;20048;-58
2021/08/03 11:55:21;;;;;;;3.83;1.75;;;;;;;;;;5053508;28;20021;-59
2021/08/03 11:57:51;;;;;;;3.33;1.70;;;;;;;;;;5054976;28;20024;-59
2021/08/03 12:00:18;;;;;;;2.78;1.50;;;;;;;;;;5056791;28;20106;-59
2021/08/03 12:02:47;;;;;;;2.25;1.58;;;;;;;;;;5056501;28;20052;-59
2021/08/03 12:05:14;;;;;;;3.92;1.52;;;;;;;;;;5056837;28;20023;-58
2021/08/03 12:07:45;;;;;;;3.05;1.70;;;;;;;;;;5056756;28;20082;-58
2021/08/03 12:10:11;;;;;;;2.53;1.63;;;;;;;;;;5057195;28;20510;-59
2021/08/03 12:12:44;;;;;;;2.47;1.20;;;;;;;;;;5056371;28;20017;-59
2021/08/03 12:15:11;;;;;;;3.95;1.55;;;;;;;;;;5057246;28;20402;-59
2021/08/03 12:17:37;;;;;;;2.45;1.10;;;;;;;;;;5056955;28;20028;-59
2021/08/03 12:20:22;;;;;;;1.35;0.80;;;;;;;;;;5056694;28;20100;-58
2021/08/03 12:22:48;;;;;;;1.95;0.90;;;;;;;;;;5057120;28;20363;-58
2021/08/03 12:25:14;;;;;;;2.63;1.13;;;;;;;;;;5056424;28;20510;-58
2021/08/03 12:27:43;;;;;;;2.05;1.15;;;;;;;;;;5056381;28;20419;-58
2021/08/03 12:30:27;;;;;;;3.25;0.95;;;;;;;;;;5055832;28;20036;-58
2021/08/03 12:32:53;;;;;;;1.83;0.82;;;;;;;;;;5056594;28;20036;-58
2021/08/03 12:35:19;;;;;;;1.40;0.80;;;;;;;;;;5056208;28;20021;-58
2021/08/03 12:37:45;;;;;;;1.38;0.77;;;;;;;;;;5056153;28;20367;-58
2021/08/03 12:40:27;;;;;;;1.85;1.17;;;;;;;;;;5054861;28;20025;-58
2021/08/03 12:42:53;;;;;;;1.33;0.55;;;;;;;;;;5056875;28;20123;-58
2021/08/03 12:45:20;;;;;;;2.42;1.23;;;;;;;;;;5056947;28;20025;-58
2021/08/03 12:47:57;;;;;;;1.27;0.70;;;;;;;;;;5056270;28;20029;-58
2021/08/03 12:50:24;;;;;;;1.27;0.60;;;;;;;;;;5054542;28;20112;-59
2021/08/03 12:52:51;;;;;;;1.55;0.77;;;;;;;;;;5056337;28;20112;-58
2021/08/03 12:55:41;;;;;;;3.22;1.02;;;;;;;;;;5055460;28;20044;-58
2021/08/03 12:58:07;;;;;;;1.98;0.60;;;;;;;;;;5056061;28;20021;-58
2021/08/03 13:00:37;;;;;;;2.75;0.82;;;;;;;;;;5055891;28;20360;-58
2021/08/03 13:03:06;;;;;;;2.72;0.82;;;;;;;;;;5054378;28;20025;-58
2021/08/03 13:05:32;;;;;;;1.30;0.60;;;;;;;;;;5054710;28;20482;-58
2021/08/03 13:07:58;;;;;;;2.38;0.95;;;;;;;;;;5055562;28;20466;-58
2021/08/03 13:10:24;;;;;;;3.53;1.10;;;;;;;;;;5054315;28;20040;-58
2021/08/03 13:12:50;;;;;;;1.30;0.60;;;;;;;;;;5056437;28;20021;-59
2021/08/03 13:15:17;;;;;;;1.75;0.80;;;;;;;;;;5054719;28;20479;-58
2021/08/03 13:17:43;;;;;;;1.70;0.95;;;;;;;;;;5055543;28;20100;-59
2021/08/03 13:20:10;;;;;;;1.70;0.68;;;;;;;;;;5055328;28;20033;-59
2021/08/03 13:22:36;;;;;;;1.35;0.77;;;;;;;;;;5055587;28;20074;-58
2021/08/03 13:25:03;;;;;;;1.55;0.73;;;;;;;;;;5055957;28;20013;-58
2021/08/03 13:27:29;;;;;;;1.10;0.60;;;;;;;;;;5054545;28;20021;-58
2021/08/03 13:29:55;;;;;;;2.47;0.93;;;;;;;;;;5055100;28;20036;-58
2021/08/03 13:32:23;;;;;;;1.52;0.80;;;;;;;;;;5056097;28;20029;-58
2021/08/03 13:34:49;;;;;;;1.70;0.90;;;;;;;;;;5055300;28;20021;-58
2021/08/03 13:37:19;;;;;;;2.30;0.63;;;;;;;;;;5055676;28;20017;-57
2021/08/03 13:39:45;;;;;;;1.83;0.68;;;;;;;;;;5055710;28;20112;-58
2021/08/03 13:42:11;;;;;;;1.90;0.90;;;;;;;;;;5055038;28;20428;-57
2021/08/03 13:44:37;;;;;;;1.15;0.57;;;;;;;;;;5054749;28;20028;-58
2021/08/03 13:47:03;;;;;;;1.60;0.77;;;;;;;;;;5055528;28;20029;-57
2021/08/03 13:49:31;;;;;;;1.80;0.98;;;;;;;;;;5055205;28;20048;-57
2021/08/03 13:51:57;;;;;;;1.23;0.73;;;;;;;;;;5055237;28;20070;-57
2021/08/03 13:54:23;;;;;;;2.22;1.08;;;;;;;;;;5054550;28;20474;-58
2021/08/03 13:56:49;;;;;;;1.42;0.73;;;;;;;;;;5054725;28;20400;-58
2021/08/03 13:59:15;;;;;;;1.38;0.73;;;;;;;;;;5054822;28;20032;-57
2021/08/03 14:01:44;;;;;;;1.63;0.93;;;;;;;;;;5055304;28;20020;-58
2021/08/03 14:04:10;;;;;;;2.42;0.70;;;;;;;;;;5054542;28;20025;-57
2021/08/03 14:06:36;;;;;;;1.40;0.70;;;;;;;;;;5054670;28;20025;-57
2021/08/03 14:09:02;;;;;;;1.02;0.60;;;;;;;;;;5053321;28;20021;-58
2021/08/03 14:11:28;;;;;;;1.40;0.60;;;;;;;;;;5054171;28;20041;-57
2021/08/03 14:13:54;;;;;;;1.70;0.80;;;;;;;;;;5054475;28;20111;-57
2021/08/03 14:16:20;;;;;;;1.50;0.70;;;;;;;;;;5054285;28;20052;-58
2021/08/03 14:18:46;;;;;;;1.00;0.60;;;;;;;;;;5053353;28;20021;-57
2021/08/03 14:21:12;;;;;;;2.03;0.80;;;;;;;;;;5053787;28;20036;-57
2021/08/03 14:23:41;;;;;;;2.10;0.90;;;;;;;;;;5053141;28;20027;-58
2021/08/03 14:26:07;;;;;;;1.08;0.60;;;;;;;;;;5054114;28;20075;-57
2021/08/03 14:28:33;;;;;;;1.55;0.95;;;;;;;;;;5054693;28;20029;-57
2021/08/03 14:30:59;;;;;;;1.42;0.50;;;;;;;;;;5054170;28;20069;-57
2021/08/03 14:33:28;;;;;;;4.82;0.90;;;;;;;;;;5054643;28;20368;-58
2021/08/03 14:35:54;;;;;;;2.50;0.70;;;;;;;;;;5052842;28;20135;-57
2021/08/03 14:38:20;;;;;;;1.83;0.70;;;;;;;;;;5053352;28;20550;-57
2021/08/03 14:40:48;;;;;;;1.00;0.45;;;;;;;;;;5052390;28;20124;-58
2021/08/03 14:43:17;;;;;;;1.33;0.65;;;;;;;;;;5054249;28;20352;-57
2021/08/03 14:45:43;;;;;;;1.50;0.80;;;;;;;;;;5052621;28;20044;-57
2021/08/03 14:48:09;;;;;;;2.58;0.75;;;;;;;;;;5054487;28;20025;-58
2021/08/03 14:50:35;;;;;;;2.35;0.80;;;;;;;;;;5054125;28;20036;-57